Time;durP1;ratioP1;P1;durP2;ratioP2;P2;SDS_P1;SDS_P2;PMS_P1;PMS_P2;Temp;Humidity;BMP_temperature;BMP_pressure;BME280_temperature;BME280_humidity;BME280_pressure;Samples;Min_cycle;Max_cycle;Signal;HPM_P1;HPM_P2
2022/03/06 00:00:01;;;;;;;36.88;17.63;;;;;;;;;;10329577;28;20046;-66
2022/03/06 00:05:04;;;;;;;43.53;20.05;;;;;;;;;;10356182;28;20046;-66
2022/03/06 00:10:08;;;;;;;41.42;19.55;;;;;;;;;;10298751;28;20058;-65
2022/03/06 00:15:10;;;;;;;40.40;19.27;;;;;;;;;;10317571;28;20059;-67
2022/03/06 00:20:13;;;;;;;32.90;15.60;;;;;;;;;;10340170;28;20062;-66
2022/03/06 00:25:17;;;;;;;44.13;20.27;;;;;;;;;;10346205;28;20054;-67
2022/03/06 00:30:20;;;;;;;32.03;18.58;;;;;;;;;;10339150;28;20050;-67
2022/03/06 00:35:24;;;;;;;37.67;18.30;;;;;;;;;;10355318;28;20362;-66
2022/03/06 00:40:27;;;;;;;39.85;20.38;;;;;;;;;;10342260;28;20090;-66
2022/03/06 00:45:30;;;;;;;55.53;21.67;;;;;;;;;;10314855;28;20050;-67
2022/03/06 00:50:32;;;;;;;55.10;22.83;;;;;;;;;;10315072;28;20043;-67
2022/03/06 00:55:36;;;;;;;45.10;17.98;;;;;;;;;;10274533;28;20066;-66
2022/03/06 01:00:41;;;;;;;36.65;16.02;;;;;;;;;;10295059;28;20341;-67
2022/03/06 01:05:43;;;;;;;29.15;14.27;;;;;;;;;;10314640;28;20094;-67
2022/03/06 01:10:50;;;;;;;23.88;13.98;;;;;;;;;;10353629;28;20269;-66
2022/03/06 01:15:52;;;;;;;26.95;15.77;;;;;;;;;;10290611;28;20047;-67
2022/03/06 01:20:55;;;;;;;30.90;16.15;;;;;;;;;;10312743;28;20292;-66
2022/03/06 01:25:59;;;;;;;40.20;17.92;;;;;;;;;;10335785;28;20396;-66
2022/03/06 01:31:01;;;;;;;31.85;16.85;;;;;;;;;;10351354;28;20050;-66
2022/03/06 01:36:04;;;;;;;33.13;16.83;;;;;;;;;;10318905;28;20350;-66
2022/03/06 01:41:08;;;;;;;29.45;16.35;;;;;;;;;;10350465;28;20042;-66
2022/03/06 01:46:10;;;;;;;34.10;18.10;;;;;;;;;;10314516;28;20046;-66
2022/03/06 01:51:13;;;;;;;32.60;16.98;;;;;;;;;;10284872;28;20333;-66
2022/03/06 01:56:17;;;;;;;34.75;17.80;;;;;;;;;;10314261;28;20042;-66
2022/03/06 02:01:20;;;;;;;34.03;17.48;;;;;;;;;;10329017;28;20038;-66
2022/03/06 02:06:22;;;;;;;31.02;16.25;;;;;;;;;;10311004;28;20036;-66
2022/03/06 02:11:27;;;;;;;33.40;16.40;;;;;;;;;;10313379;28;20097;-66
2022/03/06 02:16:32;;;;;;;31.30;17.50;;;;;;;;;;10311001;28;20058;-66
2022/03/06 02:21:36;;;;;;;37.92;18.42;;;;;;;;;;10318803;28;20043;-66
2022/03/06 02:26:39;;;;;;;36.47;19.83;;;;;;;;;;10345505;28;20274;-66
2022/03/06 02:31:41;;;;;;;40.67;19.42;;;;;;;;;;10352802;28;20049;-66
2022/03/06 02:36:45;;;;;;;38.22;18.42;;;;;;;;;;10340014;28;20059;-66
2022/03/06 02:41:48;;;;;;;37.38;19.20;;;;;;;;;;10297002;28;20062;-66
2022/03/06 02:46:50;;;;;;;38.65;18.52;;;;;;;;;;10310526;28;20046;-66
2022/03/06 02:51:54;;;;;;;37.10;19.13;;;;;;;;;;10309798;28;20057;-66
2022/03/06 02:56:56;;;;;;;55.03;23.30;;;;;;;;;;10312332;28;20238;-67
2022/03/06 03:01:58;;;;;;;58.55;24.20;;;;;;;;;;10316529;28;20272;-65
2022/03/06 03:07:02;;;;;;;52.92;23.83;;;;;;;;;;10296753;28;20051;-66
2022/03/06 03:12:06;;;;;;;54.67;23.15;;;;;;;;;;10310583;28;20054;-66
2022/03/06 03:17:08;;;;;;;44.97;20.67;;;;;;;;;;10310418;28;20050;-66
2022/03/06 03:22:12;;;;;;;51.72;21.35;;;;;;;;;;10315456;28;20046;-66
2022/03/06 03:27:15;;;;;;;42.83;21.02;;;;;;;;;;10340814;28;20341;-67
2022/03/06 03:32:17;;;;;;;38.83;21.23;;;;;;;;;;10316468;28;20348;-65
2022/03/06 03:37:23;;;;;;;37.47;20.40;;;;;;;;;;10338133;28;20114;-66
2022/03/06 03:42:26;;;;;;;37.70;20.92;;;;;;;;;;10342096;28;20333;-66
2022/03/06 03:47:28;;;;;;;39.60;21.38;;;;;;;;;;10309279;28;20046;-66
2022/03/06 03:52:32;;;;;;;38.13;20.50;;;;;;;;;;10309849;28;20051;-66
2022/03/06 03:57:34;;;;;;;38.42;21.00;;;;;;;;;;10296750;28;20050;-65
2022/03/06 04:02:36;;;;;;;42.13;21.13;;;;;;;;;;10313165;28;20425;-67
2022/03/06 04:07:40;;;;;;;50.05;22.08;;;;;;;;;;10358219;28;20049;-66
2022/03/06 04:12:42;;;;;;;42.40;18.70;;;;;;;;;;10310407;28;20253;-65
2022/03/06 04:17:44;;;;;;;32.30;16.80;;;;;;;;;;10305152;28;20381;-66
2022/03/06 04:22:48;;;;;;;32.95;18.83;;;;;;;;;;10316609;28;20046;-67
2022/03/06 04:27:51;;;;;;;22.55;13.55;;;;;;;;;;10316774;28;20401;-66
2022/03/06 04:32:53;;;;;;;27.63;15.48;;;;;;;;;;10300624;28;20038;-66
2022/03/06 04:37:58;;;;;;;30.63;16.77;;;;;;;;;;10353107;28;20066;-66
2022/03/06 04:43:00;;;;;;;28.33;16.37;;;;;;;;;;10294847;28;20106;-66
2022/03/06 04:48:03;;;;;;;34.55;17.98;;;;;;;;;;10297339;28;20296;-66
2022/03/06 04:53:07;;;;;;;34.72;19.45;;;;;;;;;;10356316;28;20054;-66
2022/03/06 04:58:09;;;;;;;41.22;20.40;;;;;;;;;;10354128;28;20236;-66
2022/03/06 05:03:11;;;;;;;43.15;22.20;;;;;;;;;;10285598;28;20290;-64
2022/03/06 05:08:15;;;;;;;32.90;17.55;;;;;;;;;;10286755;28;20106;-66
2022/03/06 05:13:17;;;;;;;30.83;18.27;;;;;;;;;;10314376;28;20361;-66
2022/03/06 05:18:20;;;;;;;31.48;18.17;;;;;;;;;;10314176;28;20369;-66
2022/03/06 05:23:25;;;;;;;48.40;23.17;;;;;;;;;;10316594;28;20337;-66
2022/03/06 05:28:27;;;;;;;37.65;21.08;;;;;;;;;;10354331;28;20096;-67
2022/03/06 05:33:29;;;;;;;38.72;20.90;;;;;;;;;;10340849;28;20042;-67
2022/03/06 05:38:34;;;;;;;36.97;19.35;;;;;;;;;;10314408;28;20065;-66
2022/03/06 05:43:36;;;;;;;42.42;20.40;;;;;;;;;;10313663;28;20046;-66
2022/03/06 05:48:38;;;;;;;36.75;20.27;;;;;;;;;;10325990;28;20043;-66
2022/03/06 05:53:42;;;;;;;44.17;23.02;;;;;;;;;;10304707;28;20043;-66
2022/03/06 05:58:44;;;;;;;87.18;37.15;;;;;;;;;;10313360;28;20051;-66
2022/03/06 06:03:46;;;;;;;105.97;41.30;;;;;;;;;;10342331;28;20046;-68
2022/03/06 06:08:50;;;;;;;48.05;23.15;;;;;;;;;;10339916;28;20047;-67
2022/03/06 06:13:52;;;;;;;80.05;35.22;;;;;;;;;;10318355;28;20222;-66
2022/03/06 06:18:55;;;;;;;48.25;24.25;;;;;;;;;;10323644;28;20380;-66
2022/03/06 06:23:59;;;;;;;46.35;22.35;;;;;;;;;;10312897;28;20058;-66
2022/03/06 06:29:01;;;;;;;39.03;20.70;;;;;;;;;;10338562;28;20348;-67
2022/03/06 06:34:04;;;;;;;38.13;19.83;;;;;;;;;;10302293;28;20105;-68
2022/03/06 06:39:09;;;;;;;41.95;21.45;;;;;;;;;;10285043;28;20043;-66
2022/03/06 06:44:11;;;;;;;61.35;24.65;;;;;;;;;;10314499;28;20074;-67
2022/03/06 06:49:14;;;;;;;68.32;28.05;;;;;;;;;;10302226;28;20353;-66
2022/03/06 06:54:18;;;;;;;60.35;26.33;;;;;;;;;;10311037;28;20086;-67
2022/03/06 06:59:20;;;;;;;56.40;24.60;;;;;;;;;;10310692;28;20058;-67
2022/03/06 07:04:22;;;;;;;39.13;20.83;;;;;;;;;;10283102;28;20062;-67
2022/03/06 07:09:26;;;;;;;52.28;29.15;;;;;;;;;;10300224;28;20353;-68
2022/03/06 07:14:28;;;;;;;46.05;24.10;;;;;;;;;;10274416;28;20365;-67
2022/03/06 07:19:31;;;;;;;41.75;23.23;;;;;;;;;;10271405;29;20043;-67
2022/03/06 07:24:34;;;;;;;40.50;24.33;;;;;;;;;;10271261;29;20055;-67
2022/03/06 07:29:37;;;;;;;44.28;24.80;;;;;;;;;;10287356;28;20101;-67
2022/03/06 07:34:39;;;;;;;41.90;22.10;;;;;;;;;;10307470;28;20058;-67
2022/03/06 07:39:43;;;;;;;40.80;23.27;;;;;;;;;;10315625;28;20055;-67
2022/03/06 07:44:45;;;;;;;44.70;25.85;;;;;;;;;;10319738;28;20062;-67
2022/03/06 07:49:48;;;;;;;40.22;24.10;;;;;;;;;;10304278;28;20070;-66
2022/03/06 07:54:51;;;;;;;46.92;25.52;;;;;;;;;;10278733;28;20127;-67
2022/03/06 07:59:54;;;;;;;45.88;26.50;;;;;;;;;;10278561;28;20047;-68
2022/03/06 08:04:56;;;;;;;41.78;26.73;;;;;;;;;;10285395;28;20055;-66
2022/03/06 08:10:00;;;;;;;46.83;29.30;;;;;;;;;;10300549;28;20085;-67
2022/03/06 08:15:02;;;;;;;39.90;26.80;;;;;;;;;;10316973;28;20054;-66
2022/03/06 08:20:07;;;;;;;45.78;26.98;;;;;;;;;;10318189;28;20069;-67
2022/03/06 08:25:11;;;;;;;33.87;23.03;;;;;;;;;;10316172;28;20047;-67
2022/03/06 08:30:14;;;;;;;36.53;24.27;;;;;;;;;;10289529;28;20050;-66
2022/03/06 08:35:17;;;;;;;38.88;26.13;;;;;;;;;;10294583;28;20066;-67
2022/03/06 08:40:21;;;;;;;35.63;23.88;;;;;;;;;;10317398;28;20066;-68
2022/03/06 08:45:23;;;;;;;33.33;22.65;;;;;;;;;;10316773;28;20046;-68
2022/03/06 08:50:25;;;;;;;33.25;23.15;;;;;;;;;;10314875;28;20046;-67
2022/03/06 08:55:29;;;;;;;35.78;25.42;;;;;;;;;;10316659;28;20277;-67
2022/03/06 09:00:32;;;;;;;32.70;22.63;;;;;;;;;;10311928;28;20054;-67
2022/03/06 09:05:38;;;;;;;40.17;26.33;;;;;;;;;;10275829;29;20094;-68
2022/03/06 09:10:42;;;;;;;31.25;21.42;;;;;;;;;;10310407;28;20365;-67
2022/03/06 09:15:44;;;;;;;27.27;19.60;;;;;;;;;;10315425;28;20098;-67
2022/03/06 09:20:47;;;;;;;30.83;20.27;;;;;;;;;;10314995;28;20051;-67
2022/03/06 09:25:51;;;;;;;31.02;20.30;;;;;;;;;;10313432;28;20118;-66
2022/03/06 09:30:53;;;;;;;26.67;19.15;;;;;;;;;;10283845;28;20042;-66
2022/03/06 09:35:56;;;;;;;31.40;20.75;;;;;;;;;;10299356;28;20297;-67
2022/03/06 09:41:05;;;;;;;27.33;18.08;;;;;;;;;;10314380;28;20062;-66
2022/03/06 09:46:08;;;;;;;29.13;18.80;;;;;;;;;;10287660;28;20047;-67
2022/03/06 09:51:10;;;;;;;22.75;17.65;;;;;;;;;;10274497;28;20059;-67
2022/03/06 09:56:14;;;;;;;32.53;22.85;;;;;;;;;;10287646;28;20050;-68
2022/03/06 10:01:16;;;;;;;38.45;25.27;;;;;;;;;;10292976;28;20050;-66
2022/03/06 10:06:19;;;;;;;34.90;22.10;;;;;;;;;;10295033;28;20050;-65
2022/03/06 10:11:29;;;;;;;38.55;23.40;;;;;;;;;;10278315;28;20042;-67
2022/03/06 10:16:31;;;;;;;31.38;23.25;;;;;;;;;;10327092;28;20042;-68
2022/03/06 10:21:33;;;;;;;32.55;20.88;;;;;;;;;;10313639;28;20042;-67
2022/03/06 10:26:38;;;;;;;18.02;13.80;;;;;;;;;;10311185;28;20054;-68
2022/03/06 10:31:54;;;;;;;23.23;15.15;;;;;;;;;;10319091;28;20051;-67
2022/03/06 10:37:01;;;;;;;23.25;14.52;;;;;;;;;;10319044;28;20058;-66
2022/03/06 10:42:10;;;;;;;20.60;14.68;;;;;;;;;;10301978;28;20115;-67
2022/03/06 10:47:13;;;;;;;27.23;17.83;;;;;;;;;;10282452;28;20334;-67
2022/03/06 10:52:17;;;;;;;20.27;14.73;;;;;;;;;;10311643;28;20058;-67
2022/03/06 10:57:21;;;;;;;22.02;14.77;;;;;;;;;;10312201;28;20234;-68
2022/03/06 11:02:24;;;;;;;23.13;16.45;;;;;;;;;;10308188;28;20042;-67
2022/03/06 11:07:29;;;;;;;23.88;15.65;;;;;;;;;;10312425;28;20372;-69
2022/03/06 11:12:36;;;;;;;18.02;14.23;;;;;;;;;;10310953;28;20043;-69
2022/03/06 11:17:38;;;;;;;31.92;18.67;;;;;;;;;;10324269;28;20046;-66
2022/03/06 11:22:48;;;;;;;19.50;13.27;;;;;;;;;;10310755;28;20066;-69
2022/03/06 11:28:11;;;;;;;26.65;18.98;;;;;;;;;;10300753;28;20287;-67
2022/03/06 11:33:13;;;;;;;28.63;18.27;;;;;;;;;;10290760;28;20058;-66
2022/03/06 11:38:18;;;;;;;24.88;14.10;;;;;;;;;;10310969;28;20113;-67
2022/03/06 11:43:43;;;;;;;34.30;19.50;;;;;;;;;;10311513;28;20054;-68
2022/03/06 11:49:05;;;;;;;;;;;;;;;;;;10297710;28;20047;-66
2022/03/06 11:54:09;;;;;;;22.58;12.95;;;;;;;;;;10284282;28;19918;-67
2022/03/06 11:59:44;;;;;;;16.80;11.98;;;;;;;;;;10275002;28;20338;-66
2022/03/06 12:04:51;;;;;;;14.02;9.40;;;;;;;;;;10309972;28;20047;-67
2022/03/06 12:09:54;;;;;;;25.05;13.10;;;;;;;;;;10308772;28;20329;-67
2022/03/06 12:14:59;;;;;;;18.60;11.95;;;;;;;;;;10272948;28;20050;-67
2022/03/06 12:20:26;;;;;;;21.37;12.73;;;;;;;;;;10270811;29;20090;-67
2022/03/06 12:25:33;;;;;;;25.63;14.57;;;;;;;;;;10288852;28;20269;-66
2022/03/06 12:30:38;;;;;;;22.20;13.52;;;;;;;;;;10294356;28;20058;-65
2022/03/06 12:35:41;;;;;;;19.85;12.70;;;;;;;;;;10276905;28;20066;-67
2022/03/06 12:40:43;;;;;;;32.35;16.88;;;;;;;;;;10317904;28;20266;-71
2022/03/06 12:45:51;;;;;;;26.45;14.48;;;;;;;;;;10329559;28;20043;-67
2022/03/06 12:50:54;;;;;;;19.05;12.85;;;;;;;;;;10297949;28;20043;-66
2022/03/06 12:55:57;;;;;;;16.30;10.00;;;;;;;;;;10288238;28;20055;-65
2022/03/06 13:01:11;;;;;;;24.58;13.10;;;;;;;;;;10295132;28;20050;-67
2022/03/06 13:06:15;;;;;;;19.45;12.50;;;;;;;;;;10319002;28;20094;-67
2022/03/06 13:11:17;;;;;;;24.05;12.63;;;;;;;;;;10307863;28;20078;-66
2022/03/06 13:16:26;;;;;;;17.23;11.55;;;;;;;;;;10304735;28;20057;-67
2022/03/06 13:21:29;;;;;;;18.98;12.15;;;;;;;;;;10329542;28;20045;-66
2022/03/06 13:26:32;;;;;;;21.17;11.60;;;;;;;;;;10300015;28;20043;-66
2022/03/06 13:31:43;;;;;;;17.83;11.35;;;;;;;;;;10275579;28;20047;-67
2022/03/06 13:36:46;;;;;;;16.38;10.88;;;;;;;;;;10276064;28;20054;-66
2022/03/06 13:41:58;;;;;;;20.02;11.45;;;;;;;;;;10275944;28;20051;-67
2022/03/06 13:47:12;;;;;;;18.55;10.27;;;;;;;;;;10287724;28;20063;-67
2022/03/06 13:52:14;;;;;;;15.82;10.77;;;;;;;;;;10274342;28;20070;-67
2022/03/06 13:57:16;;;;;;;16.20;10.32;;;;;;;;;;10274399;28;20051;-67
2022/03/06 14:02:25;;;;;;;16.73;10.32;;;;;;;;;;10274749;28;20051;-67
2022/03/06 14:07:28;;;;;;;16.33;9.77;;;;;;;;;;10300734;28;20043;-67
2022/03/06 14:12:32;;;;;;;15.55;9.18;;;;;;;;;;10295852;28;20043;-65
2022/03/06 14:17:38;;;;;;;19.25;10.55;;;;;;;;;;10274272;29;20077;-67
2022/03/06 14:22:41;;;;;;;16.67;9.43;;;;;;;;;;10297289;28;20050;-66
2022/03/06 14:27:44;;;;;;;21.15;10.85;;;;;;;;;;10273817;28;20047;-66
2022/03/06 14:32:47;;;;;;;23.67;11.75;;;;;;;;;;10276189;28;20062;-66
2022/03/06 14:37:52;;;;;;;22.20;11.95;;;;;;;;;;10313850;28;20055;-67
2022/03/06 14:42:54;;;;;;;26.23;12.57;;;;;;;;;;10311367;28;20031;-67
2022/03/06 14:47:59;;;;;;;24.10;9.57;;;;;;;;;;10285852;28;20047;-68
2022/03/06 14:53:01;;;;;;;23.08;10.45;;;;;;;;;;10292671;28;20342;-66
2022/03/06 14:58:03;;;;;;;19.38;9.73;;;;;;;;;;10312462;28;20250;-67
2022/03/06 15:03:07;;;;;;;29.05;13.10;;;;;;;;;;10312252;28;20230;-67
2022/03/06 15:08:09;;;;;;;38.78;16.77;;;;;;;;;;10312706;28;20047;-67
2022/03/06 15:13:12;;;;;;;45.53;18.33;;;;;;;;;;10311913;28;20054;-65
2022/03/06 15:18:16;;;;;;;31.73;14.38;;;;;;;;;;10294223;28;20270;-65
2022/03/06 15:23:18;;;;;;;28.63;11.20;;;;;;;;;;10272113;29;20274;-66
2022/03/06 15:28:21;;;;;;;27.50;12.77;;;;;;;;;;10272763;28;20055;-66
2022/03/06 15:33:24;;;;;;;23.80;12.30;;;;;;;;;;10300245;28;20051;-66
2022/03/06 15:38:27;;;;;;;30.63;14.48;;;;;;;;;;10310509;28;20050;-67
2022/03/06 15:43:31;;;;;;;25.15;12.85;;;;;;;;;;10298096;28;20051;-67
2022/03/06 15:48:35;;;;;;;19.58;11.38;;;;;;;;;;10293112;28;20358;-66
2022/03/06 15:53:37;;;;;;;17.27;9.65;;;;;;;;;;10293097;28;20230;-67
2022/03/06 15:58:40;;;;;;;15.52;8.88;;;;;;;;;;10314419;28;20077;-67
2022/03/06 16:03:44;;;;;;;17.20;9.45;;;;;;;;;;10332477;28;20062;-68
2022/03/06 16:08:46;;;;;;;27.13;9.55;;;;;;;;;;10336690;28;20046;-67
2022/03/06 16:13:49;;;;;;;24.52;11.65;;;;;;;;;;10339691;28;20051;-67
2022/03/06 16:18:52;;;;;;;40.67;19.35;;;;;;;;;;10317673;28;20042;-67
2022/03/06 16:23:55;;;;;;;23.25;12.43;;;;;;;;;;10300956;28;20078;-68
2022/03/06 16:28:58;;;;;;;20.70;11.95;;;;;;;;;;10318375;28;20047;-67
2022/03/06 16:34:02;;;;;;;27.27;14.48;;;;;;;;;;10334875;28;20219;-67
2022/03/06 16:39:06;;;;;;;21.02;13.30;;;;;;;;;;10319705;28;20038;-66
2022/03/06 16:44:13;;;;;;;17.98;11.70;;;;;;;;;;10331202;28;20389;-67
2022/03/06 16:49:17;;;;;;;18.80;10.15;;;;;;;;;;10328853;28;20046;-67
2022/03/06 16:54:20;;;;;;;19.77;10.90;;;;;;;;;;10317175;28;20062;-67
2022/03/06 16:59:23;;;;;;;23.67;12.50;;;;;;;;;;10316591;28;20046;-68
2022/03/06 17:04:26;;;;;;;25.05;13.45;;;;;;;;;;10325982;28;20058;-67
2022/03/06 17:09:29;;;;;;;23.92;13.20;;;;;;;;;;10341018;28;20050;-66
2022/03/06 17:14:32;;;;;;;25.88;15.25;;;;;;;;;;10315381;28;20151;-66
2022/03/06 17:19:36;;;;;;;38.83;16.10;;;;;;;;;;10279978;28;20047;-67
2022/03/06 17:24:39;;;;;;;41.72;17.70;;;;;;;;;;10357318;28;20092;-67
2022/03/06 17:29:41;;;;;;;33.78;15.05;;;;;;;;;;10315730;28;20050;-67
2022/03/06 17:34:45;;;;;;;28.45;14.23;;;;;;;;;;10314978;28;20058;-66
2022/03/06 17:39:49;;;;;;;32.70;14.93;;;;;;;;;;10314593;28;20043;-66
2022/03/06 17:44:51;;;;;;;29.73;16.05;;;;;;;;;;10320282;28;20333;-66
2022/03/06 17:49:55;;;;;;;35.38;17.80;;;;;;;;;;10316943;28;20050;-66
2022/03/06 17:54:57;;;;;;;40.00;18.65;;;;;;;;;;10346049;28;20073;-67
2022/03/06 18:00:00;;;;;;;36.03;18.65;;;;;;;;;;10353569;28;20042;-67
2022/03/06 18:05:04;;;;;;;32.22;16.83;;;;;;;;;;10311967;28;20223;-66
2022/03/06 18:10:07;;;;;;;30.15;14.95;;;;;;;;;;10305411;28;20051;-65
2022/03/06 18:15:10;;;;;;;29.88;14.30;;;;;;;;;;10344440;28;20050;-67
2022/03/06 18:20:15;;;;;;;25.05;13.75;;;;;;;;;;10345525;28;20234;-65
2022/03/06 18:25:18;;;;;;;26.60;14.73;;;;;;;;;;10313172;28;20118;-66
2022/03/06 18:30:21;;;;;;;37.35;17.23;;;;;;;;;;10340444;28;20113;-65
2022/03/06 18:35:25;;;;;;;30.23;16.45;;;;;;;;;;10340463;28;20058;-67
2022/03/06 18:40:27;;;;;;;25.83;13.93;;;;;;;;;;10299996;28;20320;-65
2022/03/06 18:45:29;;;;;;;27.88;14.70;;;;;;;;;;10328601;28;20054;-66
2022/03/06 18:50:33;;;;;;;22.77;13.13;;;;;;;;;;10352962;28;20049;-66
2022/03/06 18:55:36;;;;;;;22.58;13.43;;;;;;;;;;10299240;28;20043;-68
2022/03/06 19:00:38;;;;;;;28.77;14.63;;;;;;;;;;10312020;28;20043;-66
2022/03/06 19:05:42;;;;;;;24.27;14.20;;;;;;;;;;10315708;28;20082;-65
2022/03/06 19:10:44;;;;;;;57.25;20.83;;;;;;;;;;10311645;28;20330;-65
2022/03/06 19:15:47;;;;;;;28.65;15.35;;;;;;;;;;10339366;28;20042;-67
2022/03/06 19:20:50;;;;;;;35.65;16.52;;;;;;;;;;10320680;28;20094;-70
2022/03/06 19:25:54;;;;;;;45.90;23.30;;;;;;;;;;10299345;28;20404;-66
2022/03/06 19:30:57;;;;;;;54.55;23.80;;;;;;;;;;10311056;28;20079;-67
2022/03/06 19:36:01;;;;;;;56.00;22.13;;;;;;;;;;10333297;28;20121;-67
2022/03/06 19:41:06;;;;;;;42.67;19.60;;;;;;;;;;10319868;28;20062;-66
2022/03/06 19:46:08;;;;;;;35.80;16.63;;;;;;;;;;10338794;28;20054;-66
2022/03/06 19:51:12;;;;;;;35.05;15.95;;;;;;;;;;10328115;28;20054;-67
2022/03/06 19:56:15;;;;;;;34.72;14.60;;;;;;;;;;10284131;28;20077;-66
2022/03/06 20:01:18;;;;;;;36.25;15.88;;;;;;;;;;10360694;28;20042;-67
2022/03/06 20:06:21;;;;;;;36.88;16.38;;;;;;;;;;10338142;28;20047;-68
2022/03/06 20:11:24;;;;;;;42.55;17.25;;;;;;;;;;10336176;28;20050;-67
2022/03/06 20:16:26;;;;;;;44.75;17.88;;;;;;;;;;10340178;28;20047;-66
2022/03/06 20:21:31;;;;;;;45.55;20.05;;;;;;;;;;10334569;28;20046;-65
2022/03/06 20:26:33;;;;;;;41.22;17.73;;;;;;;;;;10340579;28;20046;-67
2022/03/06 20:31:36;;;;;;;35.00;16.73;;;;;;;;;;10317287;28;20127;-67
2022/03/06 20:36:41;;;;;;;37.22;17.00;;;;;;;;;;10330143;28;20178;-65
2022/03/06 20:41:43;;;;;;;36.75;16.92;;;;;;;;;;10356922;28;20049;-66
2022/03/06 20:46:45;;;;;;;41.95;16.55;;;;;;;;;;10340111;28;20040;-66
2022/03/06 20:51:49;;;;;;;42.78;17.73;;;;;;;;;;10318238;28;20038;-66
2022/03/06 20:56:51;;;;;;;43.63;16.88;;;;;;;;;;10316787;28;20050;-66
2022/03/06 21:01:54;;;;;;;39.67;17.52;;;;;;;;;;10317210;28;20046;-66
2022/03/06 21:06:57;;;;;;;47.50;18.45;;;;;;;;;;10317918;28;20051;-66
2022/03/06 21:11:59;;;;;;;33.42;15.98;;;;;;;;;;10338000;28;20050;-67
2022/03/06 21:17:02;;;;;;;54.55;21.00;;;;;;;;;;10315521;28;20042;-67
2022/03/06 21:22:06;;;;;;;53.97;21.38;;;;;;;;;;10316577;28;20269;-65
2022/03/06 21:27:08;;;;;;;40.60;18.08;;;;;;;;;;10315910;28;20353;-67
2022/03/06 21:32:11;;;;;;;28.73;14.68;;;;;;;;;;10337582;28;20080;-66
2022/03/06 21:37:19;;;;;;;33.95;14.50;;;;;;;;;;10331113;28;20070;-67
2022/03/06 21:42:22;;;;;;;26.85;12.73;;;;;;;;;;10331852;28;20051;-66
2022/03/06 21:47:25;;;;;;;31.52;12.65;;;;;;;;;;10353566;28;20053;-67
2022/03/06 21:52:28;;;;;;;33.05;15.27;;;;;;;;;;10325582;28;20042;-67
2022/03/06 21:57:31;;;;;;;36.33;16.88;;;;;;;;;;10294031;28;20171;-67
2022/03/06 22:02:33;;;;;;;36.33;17.83;;;;;;;;;;10334317;28;20046;-67
2022/03/06 22:07:37;;;;;;;29.38;13.50;;;;;;;;;;10322234;28;20116;-66
2022/03/06 22:12:39;;;;;;;30.50;13.23;;;;;;;;;;10273929;28;20254;-67
2022/03/06 22:17:41;;;;;;;42.15;15.90;;;;;;;;;;10303544;28;20039;-67
2022/03/06 22:22:46;;;;;;;43.38;20.33;;;;;;;;;;10300524;28;20220;-67
2022/03/06 22:27:48;;;;;;;44.90;20.35;;;;;;;;;;10312394;28;20070;-66
2022/03/06 22:32:50;;;;;;;34.40;16.58;;;;;;;;;;10334099;28;20054;-66
2022/03/06 22:37:55;;;;;;;39.85;16.92;;;;;;;;;;10331261;28;20102;-67
2022/03/06 22:42:57;;;;;;;38.08;16.55;;;;;;;;;;10312758;28;20066;-67
2022/03/06 22:47:59;;;;;;;40.05;17.05;;;;;;;;;;10312487;28;20043;-66
2022/03/06 22:53:03;;;;;;;37.40;16.90;;;;;;;;;;10312552;28;20039;-67
2022/03/06 22:58:06;;;;;;;53.35;21.23;;;;;;;;;;10311910;28;20179;-66
2022/03/06 23:03:11;;;;;;;49.15;18.85;;;;;;;;;;10311828;28;20043;-66
2022/03/06 23:08:15;;;;;;;45.35;19.85;;;;;;;;;;10342421;28;20186;-65
2022/03/06 23:13:17;;;;;;;55.42;22.13;;;;;;;;;;10315698;28;20047;-67
2022/03/06 23:18:21;;;;;;;63.10;24.85;;;;;;;;;;10311827;28;20053;-65
2022/03/06 23:23:25;;;;;;;60.45;22.52;;;;;;;;;;10311793;28;20059;-66
2022/03/06 23:28:27;;;;;;;45.85;18.98;;;;;;;;;;10311336;28;20061;-66
2022/03/06 23:33:30;;;;;;;55.70;20.60;;;;;;;;;;10333557;28;20051;-65
2022/03/06 23:38:35;;;;;;;69.65;25.23;;;;;;;;;;10327959;28;20062;-67
2022/03/06 23:43:38;;;;;;;55.17;22.77;;;;;;;;;;10331598;28;20049;-67
2022/03/06 23:48:40;;;;;;;49.75;20.70;;;;;;;;;;10350503;28;20344;-67
2022/03/06 23:53:45;;;;;;;47.88;20.75;;;;;;;;;;10350218;28;20237;-66
2022/03/06 23:58:47;;;;;;;37.85;18.80;;;;;;;;;;10329424;28;20271;-67
